sensor_id;sensor_type;location;lat;lon;timestamp;pressure;altitude;pressure_sealevel;temperature;humidity
11038;BME280;5572;49.540;11.932;2023-02-14T03:02:36;98281.75;;;0.36;100.00
11038;BME280;5572;49.540;11.932;2023-02-14T03:05:25;98284.13;;;0.45;100.00
11038;BME280;5572;49.540;11.932;2023-02-14T03:07:52;98297.91;;;0.34;100.00
11038;BME280;5572;49.540;11.932;2023-02-14T03:10:20;98293.03;;;0.38;100.00
11038;BME280;5572;49.540;11.932;2023-02-14T03:16:25;98295.97;;;0.43;100.00
11038;BME280;5572;49.540;11.932;2023-02-14T03:21:55;98326.22;;;0.42;100.00
11038;BME280;5572;49.540;11.932;2023-02-14T03:24:26;98330.44;;;0.51;100.00
11038;BME280;5572;49.540;11.932;2023-02-14T03:27:02;98337.97;;;0.47;100.00
11038;BME280;5572;49.540;11.932;2023-02-14T03:29:40;98335.19;;;0.55;100.00
11038;BME280;5572;49.540;11.932;2023-02-14T03:32:12;98338.16;;;0.60;100.00
11038;BME280;5572;49.540;11.932;2023-02-14T03:34:50;98345.31;;;0.60;100.00
11038;BME280;5572;49.540;11.932;2023-02-14T03:37:22;98349.78;;;0.59;100.00
11038;BME280;5572;49.540;11.932;2023-02-14T03:39:56;98355.13;;;0.59;100.00
11038;BME280;5572;49.540;11.932;2023-02-14T03:42:26;98361.25;;;0.45;100.00
11038;BME280;5572;49.540;11.932;2023-02-14T03:44:55;98364.47;;;0.55;100.00
11038;BME280;5572;49.540;11.932;2023-02-14T03:47:26;98367.78;;;0.57;100.00
11038;BME280;5572;49.540;11.932;2023-02-14T03:49:57;98372.09;;;0.58;100.00
11038;BME280;5572;49.540;11.932;2023-02-14T03:52:26;98366.22;;;0.63;100.00
11038;BME280;5572;49.540;11.932;2023-02-14T03:54:56;98368.50;;;0.51;100.00
11038;BME280;5572;49.540;11.932;2023-02-14T03:57:26;98357.13;;;0.57;100.00
11038;BME280;5572;49.540;11.932;2023-02-14T03:59:54;98362.34;;;0.65;100.00
11038;BME280;5572;49.540;11.932;2023-02-14T04:02:24;98353.38;;;0.66;100.00
11038;BME280;5572;49.540;11.932;2023-02-14T04:04:54;98350.34;;;0.55;100.00
11038;BME280;5572;49.540;11.932;2023-02-14T04:07:22;98354.22;;;0.67;100.00
11038;BME280;5572;49.540;11.932;2023-02-14T04:09:50;98347.22;;;0.66;100.00
11038;BME280;5572;49.540;11.932;2023-02-14T04:12:18;98356.22;;;0.65;100.00
11038;BME280;5572;49.540;11.932;2023-02-14T04:14:45;98362.19;;;0.67;100.00
11038;BME280;5572;49.540;11.932;2023-02-14T04:17:12;98372.19;;;0.65;100.00
11038;BME280;5572;49.540;11.932;2023-02-14T04:19:57;98360.78;;;0.71;100.00
11038;BME280;5572;49.540;11.932;2023-02-14T04:22:24;98373.19;;;0.64;100.00
11038;BME280;5572;49.540;11.932;2023-02-14T04:24:50;98378.59;;;0.70;100.00
11038;BME280;5572;49.540;11.932;2023-02-14T04:27:17;98390.44;;;0.96;100.00
11038;BME280;5572;49.540;11.932;2023-02-14T04:29:45;98378.78;;;0.97;100.00
11038;BME280;5572;49.540;11.932;2023-02-14T04:32:15;98372.63;;;0.97;100.00
11038;BME280;5572;49.540;11.932;2023-02-14T04:34:42;98372.91;;;0.87;100.00
11038;BME280;5572;49.540;11.932;2023-02-14T04:37:11;98380.44;;;0.98;100.00
11038;BME280;5572;49.540;11.932;2023-02-14T04:39:37;98392.00;;;1.05;100.00
11038;BME280;5572;49.540;11.932;2023-02-14T04:42:05;98394.09;;;1.10;100.00
11038;BME280;5572;49.540;11.932;2023-02-14T04:44:31;98391.88;;;1.13;100.00
11038;BME280;5572;49.540;11.932;2023-02-14T04:46:58;98395.94;;;1.09;100.00
11038;BME280;5572;49.540;11.932;2023-02-14T04:49:25;98404.94;;;1.08;100.00
11038;BME280;5572;49.540;11.932;2023-02-14T04:51:51;98402.72;;;1.12;100.00
11038;BME280;5572;49.540;11.932;2023-02-14T04:54:19;98389.53;;;1.04;100.00
11038;BME280;5572;49.540;11.932;2023-02-14T04:56:46;98397.50;;;1.04;100.00
11038;BME280;5572;49.540;11.932;2023-02-14T04:59:12;98389.44;;;0.97;100.00
11038;BME280;5572;49.540;11.932;2023-02-14T05:01:39;98392.25;;;0.96;100.00
11038;BME280;5572;49.540;11.932;2023-02-14T05:04:06;98403.66;;;1.04;100.00
11038;BME280;5572;49.540;11.932;2023-02-14T05:06:32;98404.41;;;0.98;100.00
11038;BME280;5572;49.540;11.932;2023-02-14T05:08:59;98409.88;;;0.97;100.00
11038;BME280;5572;49.540;11.932;2023-02-14T05:11:28;98417.25;;;1.09;100.00
11038;BME280;5572;49.540;11.932;2023-02-14T05:13:55;98424.59;;;1.07;100.00
11038;BME280;5572;49.540;11.932;2023-02-14T05:16:22;98440.00;;;1.12;100.00
11038;BME280;5572;49.540;11.932;2023-02-14T05:18:48;98440.56;;;1.07;100.00
11038;BME280;5572;49.540;11.932;2023-02-14T05:21:15;98445.44;;;1.04;100.00
11038;BME280;5572;49.540;11.932;2023-02-14T05:23:42;98451.75;;;1.03;100.00
11038;BME280;5572;49.540;11.932;2023-02-14T05:26:08;98457.53;;;1.06;100.00
11038;BME280;5572;49.540;11.932;2023-02-14T05:28:36;98464.50;;;1.07;100.00
11038;BME280;5572;49.540;11.932;2023-02-14T05:31:05;98473.16;;;1.09;100.00
11038;BME280;5572;49.540;11.932;2023-02-14T05:33:31;98456.78;;;1.12;100.00
11038;BME280;5572;49.540;11.932;2023-02-14T05:35:58;98458.91;;;1.17;100.00
11038;BME280;5572;49.540;11.932;2023-02-14T05:38:26;98460.28;;;1.13;100.00
11038;BME280;5572;49.540;11.932;2023-02-14T05:40:53;98465.31;;;1.08;100.00
11038;BME280;5572;49.540;11.932;2023-02-14T05:43:20;98478.53;;;1.16;100.00
11038;BME280;5572;49.540;11.932;2023-02-14T05:45:48;98482.97;;;1.09;100.00
11038;BME280;5572;49.540;11.932;2023-02-14T05:48:14;98483.31;;;1.06;100.00
11038;BME280;5572;49.540;11.932;2023-02-14T05:50:41;98485.34;;;1.04;100.00
11038;BME280;5572;49.540;11.932;2023-02-14T05:53:09;98482.69;;;1.04;100.00
11038;BME280;5572;49.540;11.932;2023-02-14T05:55:36;98477.06;;;0.99;100.00
11038;BME280;5572;49.540;11.932;2023-02-14T05:58:02;98476.16;;;0.92;100.00
11038;BME280;5572;49.540;11.932;2023-02-14T06:00:29;98482.13;;;0.80;100.00
11038;BME280;5572;49.540;11.932;2023-02-14T06:02:57;98477.06;;;0.84;100.00
11038;BME280;5572;49.540;11.932;2023-02-14T06:05:24;98472.75;;;0.83;100.00
11038;BME280;5572;49.540;11.932;2023-02-14T06:07:51;98453.66;;;0.80;100.00
11038;BME280;5572;49.540;11.932;2023-02-14T06:10:19;98454.97;;;0.84;100.00
11038;BME280;5572;49.540;11.932;2023-02-14T06:12:48;98459.25;;;0.85;100.00
11038;BME280;5572;49.540;11.932;2023-02-14T06:15:15;98451.22;;;0.93;100.00
11038;BME280;5572;49.540;11.932;2023-02-14T06:17:42;98433.47;;;1.00;100.00
11038;BME280;5572;49.540;11.932;2023-02-14T06:20:11;98432.19;;;0.96;100.00
11038;BME280;5572;49.540;11.932;2023-02-14T06:22:38;98438.72;;;0.93;100.00
11038;BME280;5572;49.540;11.932;2023-02-14T06:25:05;98436.69;;;0.95;100.00
11038;BME280;5572;49.540;11.932;2023-02-14T06:27:32;98458.25;;;1.00;100.00
11038;BME280;5572;49.540;11.932;2023-02-14T06:29:59;98475.53;;;1.04;100.00
11038;BME280;5572;49.540;11.932;2023-02-14T06:32:26;98471.94;;;0.97;100.00
11038;BME280;5572;49.540;11.932;2023-02-14T06:34:53;98474.22;;;1.00;100.00
11038;BME280;5572;49.540;11.932;2023-02-14T06:37:21;98493.78;;;0.93;100.00
11038;BME280;5572;49.540;11.932;2023-02-14T06:39:48;98501.56;;;0.80;100.00
11038;BME280;5572;49.540;11.932;2023-02-14T06:42:15;98513.59;;;0.90;100.00
11038;BME280;5572;49.540;11.932;2023-02-14T06:44:42;98510.94;;;1.05;100.00
11038;BME280;5572;49.540;11.932;2023-02-14T06:47:13;98510.69;;;1.00;100.00
11038;BME280;5572;49.540;11.932;2023-02-14T06:49:39;98523.84;;;0.79;100.00
11038;BME280;5572;49.540;11.932;2023-02-14T06:52:06;98543.06;;;0.89;100.00
11038;BME280;5572;49.540;11.932;2023-02-14T06:54:34;98546.34;;;0.77;100.00
11038;BME280;5572;49.540;11.932;2023-02-14T06:57:00;98554.13;;;0.78;100.00
11038;BME280;5572;49.540;11.932;2023-02-14T06:59:27;98558.88;;;0.68;100.00
11038;BME280;5572;49.540;11.932;2023-02-14T07:01:54;98566.03;;;0.68;100.00
11038;BME280;5572;49.540;11.932;2023-02-14T07:04:20;98590.66;;;0.70;100.00
11038;BME280;5572;49.540;11.932;2023-02-14T07:06:47;98591.47;;;0.70;100.00
11038;BME280;5572;49.540;11.932;2023-02-14T07:09:13;98594.06;;;0.78;100.00
11038;BME280;5572;49.540;11.932;2023-02-14T07:11:43;98607.78;;;0.89;100.00
11038;BME280;5572;49.540;11.932;2023-02-14T07:14:10;98603.69;;;0.79;100.00
11038;BME280;5572;49.540;11.932;2023-02-14T07:16:37;98619.00;;;0.99;100.00
11038;BME280;5572;49.540;11.932;2023-02-14T07:19:04;98616.16;;;1.01;100.00
11038;BME280;5572;49.540;11.932;2023-02-14T07:21:30;98623.88;;;1.10;100.00
11038;BME280;5572;49.540;11.932;2023-02-14T07:23:57;98627.28;;;0.82;100.00
11038;BME280;5572;49.540;11.932;2023-02-14T07:26:24;98653.53;;;0.85;100.00
11038;BME280;5572;49.540;11.932;2023-02-14T07:28:51;98647.59;;;0.83;100.00
11038;BME280;5572;49.540;11.932;2023-02-14T07:31:18;98673.84;;;1.08;100.00
11038;BME280;5572;49.540;11.932;2023-02-14T07:33:46;98660.53;;;1.08;100.00
11038;BME280;5572;49.540;11.932;2023-02-14T07:36:13;98683.94;;;1.13;100.00
11038;BME280;5572;49.540;11.932;2023-02-14T07:38:39;98672.19;;;1.07;100.00
11038;BME280;5572;49.540;11.932;2023-02-14T07:41:06;98670.09;;;1.17;100.00
11038;BME280;5572;49.540;11.932;2023-02-14T07:43:32;98671.66;;;1.12;100.00
11038;BME280;5572;49.540;11.932;2023-02-14T07:46:01;98667.97;;;0.90;100.00
11038;BME280;5572;49.540;11.932;2023-02-14T07:48:28;98696.72;;;0.95;100.00
11038;BME280;5572;49.540;11.932;2023-02-14T07:50:54;98711.75;;;1.10;100.00
11038;BME280;5572;49.540;11.932;2023-02-14T07:53:21;98717.50;;;1.22;100.00
11038;BME280;5572;49.540;11.932;2023-02-14T07:55:48;98710.25;;;1.08;100.00
11038;BME280;5572;49.540;11.932;2023-02-14T07:58:15;98741.28;;;1.23;100.00
11038;BME280;5572;49.540;11.932;2023-02-14T08:00:42;98748.97;;;1.41;100.00
11038;BME280;5572;49.540;11.932;2023-02-14T08:03:12;98740.00;;;1.19;100.00
11038;BME280;5572;49.540;11.932;2023-02-14T08:05:38;98765.72;;;1.27;100.00
11038;BME280;5572;49.540;11.932;2023-02-14T08:08:05;98774.28;;;1.14;100.00
11038;BME280;5572;49.540;11.932;2023-02-14T08:10:32;98772.03;;;1.03;100.00
11038;BME280;5572;49.540;11.932;2023-02-14T08:12:58;98791.91;;;0.93;100.00
11038;BME280;5572;49.540;11.932;2023-02-14T08:15:24;98809.31;;;1.03;100.00
11038;BME280;5572;49.540;11.932;2023-02-14T08:18:08;98808.78;;;0.78;100.00
11038;BME280;5572;49.540;11.932;2023-02-14T08:20:36;98851.03;;;1.11;100.00
11038;BME280;5572;49.540;11.932;2023-02-14T08:23:02;98819.38;;;0.85;100.00
11038;BME280;5572;49.540;11.932;2023-02-14T08:25:29;98827.41;;;0.78;100.00
11038;BME280;5572;49.540;11.932;2023-02-14T08:27:55;98854.38;;;1.05;100.00
11038;BME280;5572;49.540;11.932;2023-02-14T08:30:23;98869.16;;;1.15;100.00
11038;BME280;5572;49.540;11.932;2023-02-14T08:32:49;98893.16;;;1.07;100.00
11038;BME280;5572;49.540;11.932;2023-02-14T08:35:16;98896.19;;;0.96;100.00
11038;BME280;5572;49.540;11.932;2023-02-14T08:37:44;98922.06;;;1.18;100.00
11038;BME280;5572;49.540;11.932;2023-02-14T08:40:11;98928.03;;;1.28;100.00
11038;BME280;5572;49.540;11.932;2023-02-14T08:42:37;98939.72;;;1.50;100.00
11038;BME280;5572;49.540;11.932;2023-02-14T08:45:04;98932.00;;;1.63;100.00
11038;BME280;5572;49.540;11.932;2023-02-14T08:47:31;98946.44;;;1.38;100.00
11038;BME280;5572;49.540;11.932;2023-02-14T08:50:00;98966.03;;;1.53;100.00
11038;BME280;5572;49.540;11.932;2023-02-14T08:52:26;98980.09;;;1.69;100.00
11038;BME280;5572;49.540;11.932;2023-02-14T08:54:54;98979.00;;;1.56;100.00
11038;BME280;5572;49.540;11.932;2023-02-14T08:57:21;98987.97;;;1.63;100.00
11038;BME280;5572;49.540;11.932;2023-02-14T08:59:47;98981.44;;;1.65;100.00
11038;BME280;5572;49.540;11.932;2023-02-14T09:02:14;99000.63;;;1.61;100.00
11038;BME280;5572;49.540;11.932;2023-02-14T09:04:41;98981.66;;;1.56;100.00
11038;BME280;5572;49.540;11.932;2023-02-14T09:07:13;98987.72;;;1.42;100.00
11038;BME280;5572;49.540;11.932;2023-02-14T09:09:40;98979.78;;;1.64;100.00
11038;BME280;5572;49.540;11.932;2023-02-14T09:12:09;98959.78;;;1.68;100.00
11038;BME280;5572;49.540;11.932;2023-02-14T09:14:37;98953.50;;;1.23;100.00
11038;BME280;5572;49.540;11.932;2023-02-14T09:17:07;98991.31;;;1.18;100.00
11038;BME280;5572;49.540;11.932;2023-02-14T09:19:35;99005.78;;;1.62;100.00
11038;BME280;5572;49.540;11.932;2023-02-14T09:22:07;99012.34;;;1.52;100.00
11038;BME280;5572;49.540;11.932;2023-02-14T09:24:36;99010.75;;;1.35;100.00
11038;BME280;5572;49.540;11.932;2023-02-14T09:27:04;99022.50;;;1.48;100.00
11038;BME280;5572;49.540;11.932;2023-02-14T09:29:33;99039.00;;;1.44;100.00
11038;BME280;5572;49.540;11.932;2023-02-14T09:32:03;99042.41;;;1.60;100.00
11038;BME280;5572;49.540;11.932;2023-02-14T09:34:33;99035.09;;;1.24;100.00
11038;BME280;5572;49.540;11.932;2023-02-14T09:37:00;99059.53;;;1.27;100.00
11038;BME280;5572;49.540;11.932;2023-02-14T09:39:44;99070.59;;;1.63;100.00
11038;BME280;5572;49.540;11.932;2023-02-14T09:42:35;99089.13;;;1.94;100.00
11038;BME280;5572;49.540;11.932;2023-02-14T09:45:09;99059.38;;;1.75;100.00
11038;BME280;5572;49.540;11.932;2023-02-14T09:47:42;99093.34;;;1.73;100.00
11038;BME280;5572;49.540;11.932;2023-02-14T09:50:17;99096.59;;;1.53;100.00
11038;BME280;5572;49.540;11.932;2023-02-14T09:52:50;99108.78;;;1.47;100.00
11038;BME280;5572;49.540;11.932;2023-02-14T09:55:18;99179.06;;;2.00;100.00
11038;BME280;5572;49.540;11.932;2023-02-14T09:57:57;99169.56;;;2.44;100.00
11038;BME280;5572;49.540;11.932;2023-02-14T10:00:33;99126.59;;;1.93;100.00
11038;BME280;5572;49.540;11.932;2023-02-14T10:03:30;99129.66;;;2.20;100.00
11038;BME280;5572;49.540;11.932;2023-02-14T10:06:07;99096.84;;;1.81;100.00
11038;BME280;5572;49.540;11.932;2023-02-14T10:08:50;99084.44;;;1.58;100.00
11038;BME280;5572;49.540;11.932;2023-02-14T10:11:21;99115.69;;;2.10;100.00
11038;BME280;5572;49.540;11.932;2023-02-14T10:13:51;99095.31;;;1.87;100.00
11038;BME280;5572;49.540;11.932;2023-02-14T10:16:25;99075.25;;;1.61;100.00
11038;BME280;5572;49.540;11.932;2023-02-14T10:18:56;99106.78;;;1.87;100.00
11038;BME280;5572;49.540;11.932;2023-02-14T10:21:30;99126.94;;;2.28;100.00
11038;BME280;5572;49.540;11.932;2023-02-14T10:24:01;99118.88;;;2.36;100.00
11038;BME280;5572;49.540;11.932;2023-02-14T10:26:34;99111.25;;;2.78;100.00
11038;BME280;5572;49.540;11.932;2023-02-14T10:29:03;99071.47;;;2.68;100.00
11038;BME280;5572;49.540;11.932;2023-02-14T10:31:37;99042.47;;;2.65;100.00
11038;BME280;5572;49.540;11.932;2023-02-14T10:34:11;99038.63;;;2.82;100.00
11038;BME280;5572;49.540;11.932;2023-02-14T10:37:03;98968.28;;;2.16;100.00
11038;BME280;5572;49.540;11.932;2023-02-14T10:39:47;98929.81;;;1.88;100.00
11038;BME280;5572;49.540;11.932;2023-02-14T10:42:24;98951.03;;;2.27;100.00
11038;BME280;5572;49.540;11.932;2023-02-14T10:45:10;98937.66;;;2.12;100.00
11038;BME280;5572;49.540;11.932;2023-02-14T10:47:48;98942.84;;;2.28;100.00
11038;BME280;5572;49.540;11.932;2023-02-14T10:50:21;98941.31;;;2.34;100.00
11038;BME280;5572;49.540;11.932;2023-02-14T10:52:57;98922.91;;;2.24;100.00
11038;BME280;5572;49.540;11.932;2023-02-14T10:55:38;98924.75;;;2.38;100.00
11038;BME280;5572;49.540;11.932;2023-02-14T10:58:12;98908.50;;;2.25;100.00
11038;BME280;5572;49.540;11.932;2023-02-14T11:00:57;98879.22;;;2.03;100.00
11038;BME280;5572;49.540;11.932;2023-02-14T11:03:28;98920.66;;;2.50;100.00
11038;BME280;5572;49.540;11.932;2023-02-14T11:05:55;98934.50;;;2.82;100.00
11038;BME280;5572;49.540;11.932;2023-02-14T11:08:25;98892.66;;;2.60;100.00
11038;BME280;5572;49.540;11.932;2023-02-14T11:10:54;98888.09;;;2.69;100.00
11038;BME280;5572;49.540;11.932;2023-02-14T11:13:30;98883.38;;;3.00;100.00
11038;BME280;5572;49.540;11.932;2023-02-14T11:15:59;98889.91;;;3.26;100.00
11038;BME280;5572;49.540;11.932;2023-02-14T11:18:29;98796.66;;;2.09;100.00
11038;BME280;5572;49.540;11.932;2023-02-14T11:21:11;98782.50;;;2.09;100.00
11038;BME280;5572;49.540;11.932;2023-02-14T11:23:41;98810.38;;;2.93;100.00
11038;BME280;5572;49.540;11.932;2023-02-14T11:26:13;98791.47;;;2.94;100.00
11038;BME280;5572;49.540;11.932;2023-02-14T11:28:48;98762.81;;;3.03;100.00
11038;BME280;5572;49.540;11.932;2023-02-14T11:31:24;98755.91;;;3.50;100.00
11038;BME280;5572;49.540;11.932;2023-02-14T11:33:52;98732.47;;;3.52;100.00
11038;BME280;5572;49.540;11.932;2023-02-14T11:36:19;98693.25;;;3.32;100.00
11038;BME280;5572;49.540;11.932;2023-02-14T11:38:54;98670.28;;;3.37;100.00
11038;BME280;5572;49.540;11.932;2023-02-14T11:41:21;98679.72;;;3.88;100.00
11038;BME280;5572;49.540;11.932;2023-02-14T11:43:48;98637.75;;;3.61;100.00
11038;BME280;5572;49.540;11.932;2023-02-14T11:46:24;98642.94;;;3.62;100.00
11038;BME280;5572;49.540;11.932;2023-02-14T11:48:58;98656.81;;;3.79;100.00
11038;BME280;5572;49.540;11.932;2023-02-14T11:51:27;98632.94;;;3.77;100.00
11038;BME280;5572;49.540;11.932;2023-02-14T11:53:56;98611.91;;;3.68;100.00
11038;BME280;5572;49.540;11.932;2023-02-14T11:56:43;98604.69;;;3.68;100.00
11038;BME280;5572;49.540;11.932;2023-02-14T11:59:18;98589.94;;;3.72;100.00
11038;BME280;5572;49.540;11.932;2023-02-14T12:01:46;98592.59;;;3.72;100.00
11038;BME280;5572;49.540;11.932;2023-02-14T12:04:18;98577.75;;;3.63;100.00
11038;BME280;5572;49.540;11.932;2023-02-14T12:06:47;98552.44;;;3.66;100.00
11038;BME280;5572;49.540;11.932;2023-02-14T12:09:31;98545.66;;;3.70;100.00
11038;BME280;5572;49.540;11.932;2023-02-14T12:11:59;98518.41;;;3.87;100.00
11038;BME280;5572;49.540;11.932;2023-02-14T12:14:29;98505.47;;;3.50;100.00
11038;BME280;5572;49.540;11.932;2023-02-14T12:17:01;98495.31;;;3.73;100.00
11038;BME280;5572;49.540;11.932;2023-02-14T12:19:35;98449.81;;;3.60;100.00
11038;BME280;5572;49.540;11.932;2023-02-14T12:22:05;98429.47;;;3.66;100.00
11038;BME280;5572;49.540;11.932;2023-02-14T12:24:35;98409.97;;;3.78;100.00
11038;BME280;5572;49.540;11.932;2023-02-14T12:27:18;98402.69;;;3.59;100.00
11038;BME280;5572;49.540;11.932;2023-02-14T12:29:51;98356.00;;;3.02;100.00
11038;BME280;5572;49.540;11.932;2023-02-14T12:32:23;98358.88;;;3.01;100.00
11038;BME280;5572;49.540;11.932;2023-02-14T12:34:55;98361.28;;;3.30;100.00
11038;BME280;5572;49.540;11.932;2023-02-14T12:37:30;98345.28;;;3.42;100.00
11038;BME280;5572;49.540;11.932;2023-02-14T12:40:09;98310.63;;;3.09;100.00
11038;BME280;5572;49.540;11.932;2023-02-14T12:42:46;98289.00;;;2.91;100.00
11038;BME280;5572;49.540;11.932;2023-02-14T12:45:19;98287.00;;;2.99;100.00
11038;BME280;5572;49.540;11.932;2023-02-14T12:47:56;98321.47;;;3.60;100.00
11038;BME280;5572;49.540;11.932;2023-02-14T12:50:37;98298.81;;;3.50;100.00
11038;BME280;5572;49.540;11.932;2023-02-14T12:53:27;98287.63;;;3.08;100.00
11038;BME280;5572;49.540;11.932;2023-02-14T12:56:02;98264.72;;;2.86;100.00
11038;BME280;5572;49.540;11.932;2023-02-14T12:58:50;98259.34;;;2.33;100.00
11038;BME280;5572;49.540;11.932;2023-02-14T13:01:34;98289.16;;;2.76;100.00
11038;BME280;5572;49.540;11.932;2023-02-14T13:04:21;98331.97;;;3.68;100.00
11038;BME280;5572;49.540;11.932;2023-02-14T13:07:02;98304.66;;;3.79;100.00
11038;BME280;5572;49.540;11.932;2023-02-14T13:09:36;98293.97;;;3.92;100.00
11038;BME280;5572;49.540;11.932;2023-02-14T13:12:20;98283.25;;;3.73;100.00
11038;BME280;5572;49.540;11.932;2023-02-14T13:14:57;98281.00;;;3.89;100.00
11038;BME280;5572;49.540;11.932;2023-02-14T13:17:34;98279.13;;;4.03;100.00
11038;BME280;5572;49.540;11.932;2023-02-14T13:20:21;98261.84;;;3.66;100.00
11038;BME280;5572;49.540;11.932;2023-02-14T13:22:53;98242.88;;;3.16;100.00
11038;BME280;5572;49.540;11.932;2023-02-14T13:25:24;98245.13;;;3.19;100.00
11038;BME280;5572;49.540;11.932;2023-02-14T13:27:56;98222.44;;;2.96;100.00
11038;BME280;5572;49.540;11.932;2023-02-14T13:30:27;98219.19;;;3.00;100.00
11038;BME280;5572;49.540;11.932;2023-02-14T13:32:57;98210.59;;;3.24;100.00
11038;BME280;5572;49.540;11.932;2023-02-14T13:35:27;98187.97;;;3.20;100.00
11038;BME280;5572;49.540;11.932;2023-02-14T13:37:57;98169.00;;;2.70;100.00
11038;BME280;5572;49.540;11.932;2023-02-14T13:40:29;98167.72;;;2.53;100.00
11038;BME280;5572;49.540;11.932;2023-02-14T13:42:58;98173.06;;;2.59;100.00
11038;BME280;5572;49.540;11.932;2023-02-14T13:45:52;98180.88;;;2.61;100.00
11038;BME280;5572;49.540;11.932;2023-02-14T13:48:20;98151.59;;;2.27;100.00
11038;BME280;5572;49.540;11.932;2023-02-14T13:50:50;98191.53;;;2.61;100.00
11038;BME280;5572;49.540;11.932;2023-02-14T13:53:40;98196.94;;;2.80;100.00
11038;BME280;5572;49.540;11.932;2023-02-14T13:56:30;98191.97;;;2.64;100.00
11038;BME280;5572;49.540;11.932;2023-02-14T13:59:00;98217.13;;;2.89;100.00
11038;BME280;5572;49.540;11.932;2023-02-14T14:01:32;98233.19;;;3.09;100.00
11038;BME280;5572;49.540;11.932;2023-02-14T14:04:02;98204.09;;;2.67;100.00
11038;BME280;5572;49.540;11.932;2023-02-14T14:10:11;98227.34;;;2.79;100.00
11038;BME280;5572;49.540;11.932;2023-02-14T14:12:42;98252.91;;;3.08;100.00
11038;BME280;5572;49.540;11.932;2023-02-14T14:15:17;98259.06;;;3.15;100.00
11038;BME280;5572;49.540;11.932;2023-02-14T14:20:44;98271.25;;;3.30;100.00
11038;BME280;5572;49.540;11.932;2023-02-14T14:23:30;98231.66;;;2.74;100.00
11038;BME280;5572;49.540;11.932;2023-02-14T14:25:59;98244.19;;;2.80;100.00
11038;BME280;5572;49.540;11.932;2023-02-14T14:28:30;98252.25;;;2.93;100.00
11038;BME280;5572;49.540;11.932;2023-02-14T14:30:57;98225.69;;;2.72;100.00
11038;BME280;5572;49.540;11.932;2023-02-14T14:33:27;98242.91;;;2.76;100.00
11038;BME280;5572;49.540;11.932;2023-02-14T14:35:56;98268.09;;;3.01;100.00
11038;BME280;5572;49.540;11.932;2023-02-14T14:38:24;98245.59;;;2.76;100.00
11038;BME280;5572;49.540;11.932;2023-02-14T14:40:52;98244.97;;;2.67;100.00
11038;BME280;5572;49.540;11.932;2023-02-14T14:43:25;98223.47;;;2.42;100.00
11038;BME280;5572;49.540;11.932;2023-02-14T14:45:53;98211.69;;;2.23;100.00
11038;BME280;5572;49.540;11.932;2023-02-14T14:48:28;98240.25;;;2.29;100.00
11038;BME280;5572;49.540;11.932;2023-02-14T14:50:56;98236.72;;;2.22;100.00
11038;BME280;5572;49.540;11.932;2023-02-14T14:53:26;98274.41;;;2.47;100.00
11038;BME280;5572;49.540;11.932;2023-02-14T14:55:54;98273.78;;;2.45;100.00
11038;BME280;5572;49.540;11.932;2023-02-14T14:58:35;98282.22;;;2.48;100.00
11038;BME280;5572;49.540;11.932;2023-02-14T15:01:04;98274.09;;;2.29;100.00
11038;BME280;5572;49.540;11.932;2023-02-14T15:03:32;98297.16;;;2.43;100.00
11038;BME280;5572;49.540;11.932;2023-02-14T15:06:06;98311.81;;;2.53;100.00
11038;BME280;5572;49.540;11.932;2023-02-14T15:08:36;98302.88;;;2.40;100.00
11038;BME280;5572;49.540;11.932;2023-02-14T15:11:06;98324.53;;;2.51;100.00
11038;BME280;5572;49.540;11.932;2023-02-14T15:13:38;98333.94;;;2.47;100.00
11038;BME280;5572;49.540;11.932;2023-02-14T15:16:26;98345.16;;;2.70;100.00
11038;BME280;5572;49.540;11.932;2023-02-14T15:18:56;98335.94;;;2.72;100.00
11038;BME280;5572;49.540;11.932;2023-02-14T15:21:25;98327.31;;;2.37;100.00
11038;BME280;5572;49.540;11.932;2023-02-14T15:23:53;98333.44;;;2.37;100.00
11038;BME280;5572;49.540;11.932;2023-02-14T15:26:26;98342.41;;;2.30;100.00
11038;BME280;5572;49.540;11.932;2023-02-14T15:28:57;98356.44;;;2.38;100.00
11038;BME280;5572;49.540;11.932;2023-02-14T15:31:29;98365.78;;;2.49;100.00
11038;BME280;5572;49.540;11.932;2023-02-14T15:33:57;98359.00;;;2.53;100.00
11038;BME280;5572;49.540;11.932;2023-02-14T15:36:26;98363.53;;;2.52;100.00
11038;BME280;5572;49.540;11.932;2023-02-14T15:38:53;98365.47;;;2.37;100.00
11038;BME280;5572;49.540;11.932;2023-02-14T15:41:23;98367.91;;;2.32;100.00
11038;BME280;5572;49.540;11.932;2023-02-14T15:43:52;98397.03;;;2.34;100.00
11038;BME280;5572;49.540;11.932;2023-02-14T15:46:30;98387.47;;;2.18;100.00
11038;BME280;5572;49.540;11.932;2023-02-14T15:48:59;98390.13;;;2.18;100.00
11038;BME280;5572;49.540;11.932;2023-02-14T15:51:29;98411.22;;;2.34;100.00
11038;BME280;5572;49.540;11.932;2023-02-14T15:53:59;98399.22;;;2.24;100.00
11038;BME280;5572;49.540;11.932;2023-02-14T15:56:28;98409.66;;;2.19;100.00
11038;BME280;5572;49.540;11.932;2023-02-14T15:59:01;98417.25;;;2.22;100.00
11038;BME280;5572;49.540;11.932;2023-02-14T16:01:31;98426.84;;;2.16;100.00
11038;BME280;5572;49.540;11.932;2023-02-14T16:04:02;98417.16;;;2.09;100.00
11038;BME280;5572;49.540;11.932;2023-02-14T16:06:34;98434.84;;;2.16;100.00
11038;BME280;5572;49.540;11.932;2023-02-14T16:09:04;98427.09;;;2.00;100.00
11038;BME280;5572;49.540;11.932;2023-02-14T16:11:33;98429.69;;;1.94;100.00
11038;BME280;5572;49.540;11.932;2023-02-14T16:14:19;98447.34;;;1.95;100.00
11038;BME280;5572;49.540;11.932;2023-02-14T16:20:36;98468.94;;;1.79;100.00
11038;BME280;5572;49.540;11.932;2023-02-14T16:23:21;98473.19;;;1.59;100.00
11038;BME280;5572;49.540;11.932;2023-02-14T16:25:49;98509.63;;;1.73;100.00
11038;BME280;5572;49.540;11.932;2023-02-14T16:28:16;98505.84;;;1.82;100.00
11038;BME280;5572;49.540;11.932;2023-02-14T16:30:44;98528.81;;;1.83;100.00
11038;BME280;5572;49.540;11.932;2023-02-14T16:33:16;98537.28;;;1.86;100.00
11038;BME280;5572;49.540;11.932;2023-02-14T16:35:46;98557.44;;;1.74;100.00
11038;BME280;5572;49.540;11.932;2023-02-14T16:38:14;98555.88;;;1.66;100.00